Time;durP1;ratioP1;P1;durP2;ratioP2;P2;SDS_P1;SDS_P2;PMS_P1;PMS_P2;Temp;Humidity;BMP_temperature;BMP_pressure;BME280_temperature;BME280_humidity;BME280_pressure;Samples;Min_cycle;Max_cycle;Signal;HPM_P1;HPM_P2
2023/09/18 00:03:02;;;;;;;6.67;5.00;;;23.70;99.70;;;;;;4967570;28;20529;-80
2023/09/18 00:08:34;;;;;;;9.50;5.30;;;23.70;99.90;;;;;;5007247;28;20455;-86
2023/09/18 00:17:13;;;;;;;6.90;5.00;;;23.70;99.90;;;;;;5014936;23;20483;-86
2023/09/18 00:23:41;;;;;;;7.67;5.50;;;24.00;99.00;;;;;;5002922;28;20474;-84
2023/09/18 00:31:02;;;;;;;6.80;4.60;;;23.70;99.10;;;;;;4996417;28;20504;-84
2023/09/18 00:37:19;;;;;;;8.03;4.63;;;23.40;99.90;;;;;;4987537;28;20448;-85
2023/09/18 00:40:51;;;;;;;5.80;4.77;;;23.50;99.90;;;;;;4928996;28;20474;-87
2023/09/18 00:50:12;;;;;;;5.10;4.70;;;23.30;99.60;;;;;;5011847;28;20474;-84
2023/09/18 01:03:01;;;;;;;5.20;4.70;;;23.40;99.70;;;;;;5002209;28;20466;-86
2023/09/18 01:05:57;;;;;;;6.90;4.80;;;23.30;99.60;;;;;;4979559;28;20426;-86
2023/09/18 01:09:00;;;;;;;;;;;;;;;;;;;;;
2023/09/18 01:12:23;;;;;;;5.47;4.97;;;23.40;99.50;;;;;;4985829;28;20451;-86
2023/09/18 01:15:44;;;;;;;4.93;4.43;;;23.40;99.40;;;;;;5044918;23;20503;-85
2023/09/18 01:18:54;;;;;;;5.37;4.83;;;23.40;99.40;;;;;;4994511;28;20455;-87
2023/09/18 01:22:08;;;;;;;6.13;5.23;;;23.60;99.20;;;;;;4995396;28;20431;-87
2023/09/18 01:25:25;;;;;;;6.50;4.80;;;23.60;99.10;;;;;;5077990;23;20518;-85
2023/09/18 01:28:19;;;;;;;6.03;4.73;;;23.40;99.10;;;;;;5000152;28;20538;-87
2023/09/18 01:31:14;;;;;;;7.73;4.30;;;23.40;99.10;;;;;;5004816;28;20466;-86
2023/09/18 01:34:57;;;;;;;8.73;5.67;;;23.40;99.50;;;;;;5178486;22;20508;-84
2023/09/18 01:37:53;;;;;;;7.47;4.80;;;23.20;99.30;;;;;;4957454;28;20442;-87
2023/09/18 01:40:57;;;;;;;5.93;4.80;;;23.40;99.40;;;;;;4958203;28;20454;-86
2023/09/18 01:50:35;;;;;;;5.33;4.50;;;23.30;99.30;;;;;;4942415;29;20908;-86
2023/09/18 01:53:52;;;;;;;5.37;4.40;;;23.40;99.10;;;;;;4926268;28;20471;-87
2023/09/18 01:56:36;;;;;;;4.80;4.30;;;23.30;99.10;;;;;;4997193;28;20450;-86
2023/09/18 01:59:26;;;;;;;7.03;4.27;;;23.30;99.40;;;;;;5003195;28;20554;-87
2023/09/18 02:02:43;;;;;;;5.87;4.67;;;23.30;99.20;;;;;;4990000;28;20447;-86
2023/09/18 02:05:47;;;;;;;5.20;4.70;;;23.20;99.30;;;;;;5214657;23;20506;-86
2023/09/18 02:09:09;;;;;;;4.80;4.30;;;23.10;99.60;;;;;;4997712;28;20439;-88
2023/09/18 02:12:20;;;;;;;;;;;;;;;;;;;;;
2023/09/18 02:15:18;;;;;;;6.43;4.43;;;23.00;99.90;;;;;;4990336;28;20550;-86
2023/09/18 02:21:57;;;;;;;7.57;5.13;;;22.80;99.90;;;;;;4994167;28;20450;-87
2023/09/18 02:24:47;;;;;;;4.33;3.90;;;22.80;99.90;;;;;;4973943;28;20482;-87
2023/09/18 02:28:07;;;;;;;6.80;4.80;;;22.80;99.90;;;;;;4984592;28;20476;-86
2023/09/18 02:31:15;;;;;;;4.93;3.83;;;22.90;99.90;;;;;;4981403;28;20475;-87
2023/09/18 02:37:15;;;;;;;6.83;4.63;;;22.80;99.90;;;;;;4979970;28;20460;-87
2023/09/18 02:43:10;;;;;;;5.03;4.10;;;22.70;99.90;;;;;;4987741;28;20487;-87
2023/09/18 02:46:06;;;;;;;5.10;4.40;;;22.80;99.90;;;;;;4987139;28;20465;-87
2023/09/18 02:48:56;;;;;;;6.43;5.17;;;22.90;99.90;;;;;;4996600;28;20460;-86
2023/09/18 02:51:59;;;;;;;7.50;4.63;;;22.90;99.90;;;;;;4909392;29;20486;-86
2023/09/18 03:01:19;;;;;;;8.27;5.43;;;23.00;99.90;;;;;;4997632;28;20443;-90
2023/09/18 03:04:19;;;;;;;5.20;4.43;;;23.00;99.90;;;;;;4979096;28;21054;-86
2023/09/18 03:10:52;;;;;;;9.63;4.40;;;23.00;99.90;;;;;;4941183;29;20572;-85
2023/09/18 03:16:24;;;;;;;5.20;4.43;;;23.10;99.90;;;;;;5150993;22;20516;-85
2023/09/18 03:23:08;;;;;;;5.27;4.77;;;22.80;99.90;;;;;;4992082;28;20845;-86
2023/09/18 03:26:22;;;;;;;9.90;6.83;;;23.10;99.90;;;;;;4978375;28;20988;-87
2023/09/18 03:32:42;;;;;;;5.93;4.73;;;22.80;99.90;;;;;;5000754;28;20489;-87
2023/09/18 03:36:07;;;;;;;;;;;;;;;;;;;;;
2023/09/18 03:39:05;;;;;;;5.53;5.00;;;22.70;99.90;;;;;;5006132;28;20471;-87
2023/09/18 03:42:04;;;;;;;9.43;4.60;;;22.60;99.90;;;;;;4969562;28;20494;-86
2023/09/18 03:45:26;;;;;;;6.30;5.70;;;22.60;99.90;;;;;;4988101;28;20482;-87
2023/09/18 03:48:35;;;;;;;;;;;;;;;;;;;;;
2023/09/18 03:51:44;;;;;;;5.53;5.03;;;22.60;99.90;;;;;;4973958;28;20459;-87
2023/09/18 03:58:12;;;;;;;6.63;5.43;;;22.40;99.90;;;;;;4994260;28;20482;-87
2023/09/18 04:06:52;;;;;;;6.47;4.77;;;22.30;99.90;;;;;;5203741;23;20489;-86
2023/09/18 04:10:22;;;;;;;8.33;4.70;;;22.40;99.90;;;;;;5011136;28;20936;-86
2023/09/18 04:13:29;;;;;;;;;;;;;;;;;;;;;
2023/09/18 04:16:42;;;;;;;6.43;5.83;;;22.40;99.90;;;;;;4970518;28;20488;-85
2023/09/18 04:20:12;;;;;;;6.70;4.37;;;22.50;99.90;;;;;;4974024;28;20442;-87
2023/09/18 04:23:40;;;;;;;7.27;4.47;;;22.50;99.90;;;;;;4978206;28;20650;-87
2023/09/18 04:27:22;;;;;;;4.87;4.17;;;22.30;99.90;;;;;;4940599;28;20978;-86
2023/09/18 04:49:07;;;;;;;6.80;4.63;;;22.30;99.90;;;;;;5076559;28;20480;-86
2023/09/18 06:07:15;;;;;;;7.40;3.60;;;22.20;99.90;;;;;;6104747;23;20422;-87
2023/09/18 06:11:00;;;;;;;;;;;;;;;;;;;;;
2023/09/18 06:32:05;;;;;;;6.10;3.60;;;22.20;99.90;;;;;;6266699;22;20395;-87
2023/09/18 06:35:56;;;;;;;;;;;;;;;;;;;;;
2023/09/18 06:46:44;;;;;;;;;;;;;;;;;;;;;
2023/09/18 06:50:44;;;;;;;3.63;2.37;;;22.60;99.90;;;;;;6071598;23;20416;-87
2023/09/18 07:02:59;;;;;;;4.33;1.90;;;22.50;99.90;;;;;;6292530;22;20458;-81
2023/09/18 07:06:11;;;;;;;4.67;1.97;;;22.60;99.90;;;;;;6300252;22;20474;-82
2023/09/18 07:12:47;;;;;;;5.27;2.03;;;22.70;99.90;;;;;;6102505;23;20381;-82
2023/09/18 07:15:48;;;;;;;3.60;1.90;;;22.70;99.90;;;;;;6067377;23;20453;-86
2023/09/18 07:19:47;;;;;;;3.63;1.90;;;22.80;99.80;;;;;;6078452;23;20408;-84
2023/09/18 07:27:03;;;;;;;;;;;;;;;;;;;;;
2023/09/18 07:37:03;;;;;;;2.47;1.60;;;23.40;98.40;;;;;;6326660;22;20457;-87
2023/09/18 08:15:41;;;;;;;1.60;1.50;;;22.80;98.70;;;;;;6315731;22;20461;-86
2023/09/18 08:19:23;;;;;;;4.17;1.70;;;22.90;98.20;;;;;;6315732;22;20394;-86
2023/09/18 08:22:35;;;;;;;;;;;;;;;;;;;;;
2023/09/18 08:26:03;;;;;;;3.60;2.10;;;22.90;98.30;;;;;;6316670;22;20432;-85
2023/09/18 08:43:19;;;;;;;2.40;1.47;;;22.90;98.10;;;;;;6252477;23;20442;-86
2023/09/18 08:46:43;;;;;;;1.83;1.43;;;22.90;98.20;;;;;;6164483;23;20403;-87
2023/09/18 09:41:48;;;;;;;;;;;;;;;;;;;;;
2023/09/18 09:49:33;;;;;;;2.40;1.27;;;23.70;95.50;;;;;;6086171;22;20419;-84
2023/09/18 09:53:15;;;;;;;4.63;1.53;;;23.70;95.50;;;;;;6154206;22;20397;-87
2023/09/18 09:56:59;;;;;;;3.53;2.30;;;23.80;95.10;;;;;;6181609;23;20448;-85
2023/09/18 10:01:01;;;;;;;4.00;1.63;;;23.80;95.10;;;;;;6129793;23;20443;-85
2023/09/18 10:08:19;;;;;;;5.10;1.13;;;24.30;94.20;;;;;;6118449;23;20534;-87
2023/09/18 10:27:04;;;;;;;1.47;1.00;;;26.90;87.10;;;;;;6345465;22;20428;-84
2023/09/18 10:48:00;;;;;;;2.10;1.17;;;28.90;73.50;;;;;;6322058;22;20454;-85
2023/09/18 10:51:07;;;;;;;0.80;0.80;;;29.20;73.10;;;;;;6291243;22;20390;-85
2023/09/18 10:59:29;;;;;;;;;;;;;;;;;;;;;
2023/09/18 11:03:02;;;;;;;;;;;;;;;;;;;;;
2023/09/18 11:10:02;;;;;;;2.20;1.17;;;29.00;71.00;;;;;;6263502;23;20401;-86
2023/09/18 11:55:42;;;;;;;;;;;;;;;;;;;;;
2023/09/18 12:07:03;;;;;;;3.07;1.20;;;30.00;58.60;;;;;;6307757;22;20438;-86
2023/09/18 12:11:05;;;;;;;1.47;1.37;;;30.30;59.00;;;;;;6174212;23;20426;-84
2023/09/18 12:18:14;;;;;;;1.80;1.00;;;30.80;56.50;;;;;;5989629;24;20396;-85
2023/09/18 12:21:38;;;;;;;1.97;1.10;;;29.70;57.80;;;;;;6012094;23;20420;-85
2023/09/18 13:30:09;;;;;;;1.30;1.20;;;30.60;51.60;;;;;;6312344;22;20462;-83
2023/09/18 13:33:05;;;;;;;2.27;1.20;;;31.10;50.70;;;;;;6139572;23;20434;-87
2023/09/18 13:36:29;;;;;;;1.70;1.60;;;30.60;51.70;;;;;;6308059;22;20454;-84
2023/09/18 13:57:07;;;;;;;2.50;2.00;;;29.30;54.30;;;;;;6317846;22;20457;-84
2023/09/18 14:00:14;;;;;;;1.60;1.50;;;29.30;54.80;;;;;;6248392;22;20414;-88
2023/09/18 14:03:41;;;;;;;1.50;1.40;;;28.80;55.00;;;;;;6291836;22;20473;-85
2023/09/18 14:14:05;;;;;;;1.10;1.00;;;29.10;53.70;;;;;;6168848;23;20422;-83
2023/09/18 14:21:00;;;;;;;1.23;1.13;;;29.20;53.00;;;;;;6219513;22;21225;-86
2023/09/18 14:24:24;;;;;;;1.60;1.50;;;28.90;54.00;;;;;;6244475;22;20414;-85
2023/09/18 14:27:45;;;;;;;2.63;1.03;;;28.80;54.50;;;;;;6247029;22;20513;-86
2023/09/18 14:30:54;;;;;;;1.17;1.00;;;28.50;55.40;;;;;;6251902;22;20402;-84
2023/09/18 14:34:00;;;;;;;1.10;0.90;;;28.60;55.00;;;;;;6114994;23;20522;-84
2023/09/18 14:37:10;;;;;;;2.73;1.40;;;28.40;55.50;;;;;;6109069;23;20454;-85
2023/09/18 14:40:11;;;;;;;2.70;1.40;;;28.40;55.60;;;;;;6118431;23;20430;-88
2023/09/18 14:43:08;;;;;;;1.20;1.10;;;28.60;55.00;;;;;;6137163;23;20581;-87
2023/09/18 14:45:58;;;;;;;1.70;1.30;;;28.40;55.00;;;;;;6143923;23;20458;-87
2023/09/18 14:53:10;;;;;;;1.33;1.23;;;27.90;56.00;;;;;;6191914;23;20382;-83
2023/09/18 14:56:37;;;;;;;1.97;1.20;;;28.00;56.30;;;;;;6178845;23;20515;-85
2023/09/18 14:59:42;;;;;;;1.40;1.20;;;28.20;55.10;;;;;;6111925;23;20417;-86
2023/09/18 15:02:53;;;;;;;1.97;1.30;;;28.20;55.20;;;;;;6084015;23;20416;-85
2023/09/18 15:06:08;;;;;;;2.30;1.20;;;28.10;54.90;;;;;;6120495;23;20461;-85
2023/09/18 15:09:21;;;;;;;2.10;1.40;;;27.80;55.50;;;;;;6139510;23;20417;-86
2023/09/18 15:12:42;;;;;;;1.40;1.20;;;27.90;55.50;;;;;;6123106;23;20531;-84
2023/09/18 15:16:12;;;;;;;1.40;1.30;;;27.90;55.00;;;;;;6210654;22;20465;-86
2023/09/18 15:19:06;;;;;;;1.20;1.10;;;28.30;54.80;;;;;;6304202;22;20480;-83
2023/09/18 15:22:11;;;;;;;;;;;;;;;;;;;;;
2023/09/18 15:28:45;;;;;;;;;;;;;;;;;;;;;
2023/09/18 15:35:44;;;;;;;1.60;1.40;;;28.10;54.40;;;;;;6220743;22;20482;-83
2023/09/18 15:41:50;;;;;;;2.03;1.73;;;27.40;55.30;;;;;;6076226;23;20460;-85
2023/09/18 15:47:26;;;;;;;2.07;1.53;;;27.80;55.50;;;;;;6320416;22;20448;-86
2023/09/18 15:54:16;;;;;;;3.57;1.70;;;27.70;55.70;;;;;;6307268;22;20545;-87
2023/09/18 15:57:05;;;;;;;3.80;1.33;;;27.40;56.10;;;;;;6320555;22;20444;-86
2023/09/18 16:04:37;;;;;;;;;;;;;;;;;;;;;
2023/09/18 16:07:57;;;;;;;1.80;1.57;;;26.90;56.70;;;;;;6309713;22;20422;-87
2023/09/18 16:17:39;;;;;;;1.60;1.50;;;26.90;56.90;;;;;;6307175;22;20458;-83
2023/09/18 16:24:51;;;;;;;1.40;1.30;;;26.70;57.70;;;;;;6209101;23;20416;-86
2023/09/18 16:28:14;;;;;;;2.63;2.23;;;26.70;58.00;;;;;;6174128;23;20404;-87
2023/09/18 16:30:51;;;;;;;1.30;1.20;;;26.90;57.50;;;;;;6188553;23;20496;-85
2023/09/18 16:33:41;;;;;;;1.93;1.43;;;26.80;57.80;;;;;;6182766;23;20417;-86
2023/09/18 16:37:06;;;;;;;1.73;1.63;;;26.80;58.00;;;;;;6139418;23;20452;-87
2023/09/18 16:40:18;;;;;;;1.80;1.50;;;26.60;58.30;;;;;;6196708;23;20401;-84
2023/09/18 16:43:12;;;;;;;1.83;1.43;;;26.40;58.90;;;;;;6178088;23;20398;-85
2023/09/18 16:49:47;;;;;;;1.87;1.20;;;26.30;59.30;;;;;;6071589;23;20406;-85
2023/09/18 16:52:59;;;;;;;1.20;1.10;;;26.20;59.60;;;;;;6087108;23;20400;-83
2023/09/18 16:56:13;;;;;;;1.70;1.57;;;26.20;59.70;;;;;;6060921;23;20555;-84
2023/09/18 16:59:22;;;;;;;2.27;1.80;;;26.20;59.70;;;;;;6073737;23;20417;-85
2023/09/18 17:05:34;;;;;;;1.73;1.40;;;26.20;59.90;;;;;;6176567;23;20490;-83
2023/09/18 17:08:22;;;;;;;2.30;1.60;;;26.00;60.00;;;;;;6150845;23;20418;-84
2023/09/18 17:11:42;;;;;;;1.67;1.57;;;25.80;60.80;;;;;;6160458;23;20918;-84
2023/09/18 17:14:16;;;;;;;1.43;1.33;;;25.80;61.30;;;;;;6154831;23;20515;-86
2023/09/18 17:17:16;;;;;;;1.87;1.53;;;25.70;61.70;;;;;;6119743;23;20450;-84
2023/09/18 17:20:04;;;;;;;1.70;1.33;;;25.80;61.70;;;;;;6157736;23;20528;-84
2023/09/18 17:22:55;;;;;;;2.10;1.90;;;25.70;61.80;;;;;;6173174;23;20441;-87
2023/09/18 17:25:49;;;;;;;2.20;1.57;;;25.70;62.20;;;;;;6171515;23;20581;-87
2023/09/18 17:28:33;;;;;;;1.60;1.47;;;25.60;62.40;;;;;;6297145;22;20455;-86
2023/09/18 17:31:11;;;;;;;1.40;1.20;;;25.50;62.80;;;;;;6288292;22;20397;-85
2023/09/18 17:34:14;;;;;;;2.47;1.70;;;25.50;63.00;;;;;;6285753;22;20449;-83
2023/09/18 17:36:55;;;;;;;1.60;1.50;;;25.40;63.30;;;;;;6280805;22;20488;-85
2023/09/18 17:39:33;;;;;;;2.00;1.60;;;25.40;63.50;;;;;;6278705;22;20416;-87
2023/09/18 17:42:17;;;;;;;1.70;1.60;;;25.40;63.50;;;;;;6280032;22;20390;-85
2023/09/18 17:44:55;;;;;;;3.20;1.40;;;25.30;64.00;;;;;;6307493;22;20430;-85
2023/09/18 17:48:08;;;;;;;1.60;1.50;;;25.30;63.90;;;;;;6309084;22;20448;-87
2023/09/18 17:50:48;;;;;;;1.50;1.40;;;25.20;64.30;;;;;;6280717;22;20410;-87
2023/09/18 17:56:45;;;;;;;2.80;1.90;;;25.10;64.70;;;;;;6268632;22;20450;-86
2023/09/18 17:59:38;;;;;;;;;;;;;;;;;;;;;
2023/09/18 18:02:51;;;;;;;1.73;1.63;;;25.30;64.60;;;;;;6271981;22;20442;-86
2023/09/18 18:05:25;;;;;;;3.57;1.53;;;25.30;64.40;;;;;;6247412;22;20833;-85
2023/09/18 18:08:19;;;;;;;3.07;1.80;;;25.40;64.80;;;;;;6247672;22;20969;-86
2023/09/18 18:10:55;;;;;;;1.90;1.70;;;25.10;65.30;;;;;;6243029;22;20411;-86
2023/09/18 18:13:47;;;;;;;2.37;2.10;;;25.30;66.10;;;;;;6266289;22;20472;-87
2023/09/18 18:16:26;;;;;;;4.53;1.70;;;25.20;65.40;;;;;;6245279;22;20468;-87
2023/09/18 18:19:13;;;;;;;9.27;1.47;;;24.90;64.40;;;;;;6248410;22;20616;-85
2023/09/18 18:21:50;;;;;;;2.70;1.30;;;24.60;65.10;;;;;;6273576;22;20415;-85
2023/09/18 18:24:27;;;;;;;2.77;1.40;;;24.20;68.60;;;;;;6242228;22;20501;-85
2023/09/18 18:27:09;;;;;;;2.40;2.20;;;23.80;72.40;;;;;;6243114;22;20434;-88
2023/09/18 18:29:52;;;;;;;1.20;1.00;;;23.40;76.90;;;;;;6265610;22;20403;-86
2023/09/18 18:32:41;;;;;;;1.47;1.00;;;23.20;81.10;;;;;;6236282;22;20412;-84
2023/09/18 18:35:20;;;;;;;3.70;1.20;;;22.80;85.10;;;;;;6235966;22;20433;-84
2023/09/18 18:38:08;;;;;;;1.37;1.10;;;22.60;89.20;;;;;;6237567;22;20422;-85
2023/09/18 18:40:45;;;;;;;2.20;1.10;;;22.40;91.10;;;;;;6238426;22;20518;-89
2023/09/18 18:43:33;;;;;;;26.97;24.97;;;22.30;91.80;;;;;;6243692;22;20399;-84
2023/09/18 18:46:08;;;;;;;5.27;4.90;;;22.40;91.90;;;;;;6243448;22;20426;-84
2023/09/18 18:48:54;;;;;;;3.83;2.47;;;22.30;92.30;;;;;;6246428;22;20410;-83
2023/09/18 18:51:40;;;;;;;5.20;4.77;;;22.00;93.10;;;;;;6228275;22;20403;-87
2023/09/18 18:54:15;;;;;;;3.00;2.57;;;21.70;94.30;;;;;;6242509;22;20633;-87
2023/09/18 18:56:58;;;;;;;4.23;3.83;;;21.40;95.00;;;;;;6239682;22;20438;-85
2023/09/18 19:09:27;;;;;;;3.10;2.40;;;21.30;97.00;;;;;;6201876;23;20421;-86
2023/09/18 19:12:28;;;;;;;1.47;1.10;;;21.20;97.10;;;;;;6202465;23;20416;-84
2023/09/18 19:15:35;;;;;;;2.83;1.40;;;21.10;96.80;;;;;;6237206;22;20440;-85
2023/09/18 19:22:50;;;;;;;1.23;1.13;;;21.00;97.90;;;;;;6120779;23;20388;-86
2023/09/18 19:26:23;;;;;;;1.70;1.40;;;20.90;98.20;;;;;;6138419;22;20434;-84
2023/09/18 19:29:18;;;;;;;1.63;1.50;;;20.80;98.80;;;;;;6089025;23;20411;-84
2023/09/18 19:32:42;;;;;;;2.10;1.60;;;20.80;99.30;;;;;;6169532;22;20419;-85
2023/09/18 19:35:09;;;;;;;2.90;2.03;;;20.70;99.40;;;;;;6264667;22;20542;-88
2023/09/18 19:37:45;;;;;;;2.13;1.57;;;20.70;99.70;;;;;;6268061;22;20439;-86
2023/09/18 19:40:28;;;;;;;2.90;1.83;;;20.70;99.80;;;;;;6241181;22;20448;-84
2023/09/18 19:46:50;;;;;;;1.90;1.30;;;20.80;99.90;;;;;;6258695;22;20415;-84
2023/09/18 19:49:48;;;;;;;2.80;1.63;;;20.50;99.90;;;;;;6251968;22;20403;-86
2023/09/18 19:52:33;;;;;;;2.70;1.90;;;20.40;99.90;;;;;;6246405;22;20430;-84
2023/09/18 19:55:18;;;;;;;3.17;1.80;;;20.50;99.90;;;;;;6259855;22;20439;-84
2023/09/18 19:58:33;;;;;;;3.63;1.87;;;20.60;99.90;;;;;;6239124;22;20404;-84
2023/09/18 20:04:22;;;;;;;2.13;1.90;;;20.60;99.90;;;;;;6275902;22;20439;-82
2023/09/18 20:07:06;;;;;;;3.40;1.97;;;20.80;99.90;;;;;;6245157;23;20499;-87
2023/09/18 20:10:03;;;;;;;3.90;2.40;;;20.70;99.90;;;;;;6219058;23;20424;-87
2023/09/18 20:12:47;;;;;;;2.73;2.07;;;20.70;99.90;;;;;;6219617;23;20412;-85
2023/09/18 20:15:30;;;;;;;5.03;1.80;;;20.70;99.90;;;;;;6215734;23;20446;-87
2023/09/18 20:18:13;;;;;;;5.13;2.53;;;20.60;99.90;;;;;;6218962;23;20410;-83
2023/09/18 20:21:08;;;;;;;2.90;2.20;;;20.50;99.90;;;;;;6220281;23;20446;-85
2023/09/18 20:23:47;;;;;;;1.63;1.53;;;20.50;99.90;;;;;;6215537;22;20444;-84
2023/09/18 20:26:47;;;;;;;1.93;1.50;;;20.40;99.90;;;;;;6219464;23;20462;-83
2023/09/18 20:30:09;;;;;;;;;;;;;;;;;;;;;
2023/09/18 20:33:13;;;;;;;;;;;;;;;;;;;;;
2023/09/18 20:36:06;;;;;;;2.10;1.53;;;20.50;99.90;;;;;;6249483;22;20442;-88
2023/09/18 20:39:00;;;;;;;1.53;1.43;;;20.40;99.90;;;;;;6219524;23;20408;-84
2023/09/18 20:42:12;;;;;;;3.23;1.80;;;20.40;99.90;;;;;;6219745;23;20390;-85
2023/09/18 20:45:10;;;;;;;2.70;1.70;;;20.40;99.90;;;;;;6211222;23;20524;-84
2023/09/18 20:48:00;;;;;;;2.60;1.80;;;20.40;99.90;;;;;;6235138;23;20416;-84
2023/09/18 20:50:48;;;;;;;3.23;2.10;;;20.40;99.90;;;;;;6208565;23;21136;-85
2023/09/18 20:56:01;;;;;;;2.87;1.93;;;20.40;99.90;;;;;;6293438;22;20531;-85
2023/09/18 20:59:00;;;;;;;1.87;1.70;;;20.00;99.90;;;;;;6304550;22;20460;-87
2023/09/18 22:18:05;;;;;;;;;;;;;;;;;;;;;
2023/09/18 22:21:30;;;;;;;;;;;;;;;;;;;;;
2023/09/18 22:25:20;;;;;;;1.80;1.70;;;20.20;99.70;;;;;;6179887;22;20416;-83
2023/09/18 22:28:26;;;;;;;1.00;1.00;;;20.20;99.00;;;;;;6240436;23;20476;-83
2023/09/18 22:31:27;;;;;;;1.83;1.40;;;20.20;99.10;;;;;;6231076;23;20446;-85
2023/09/18 22:34:48;;;;;;;1.80;1.40;;;20.10;98.80;;;;;;6211063;23;20843;-83
2023/09/18 22:41:50;;;;;;;2.13;1.37;;;20.10;98.10;;;;;;6157217;23;21010;-85
2023/09/18 22:45:18;;;;;;;1.53;1.23;;;19.90;98.40;;;;;;6145937;23;20401;-85
2023/09/18 22:48:42;;;;;;;1.27;1.03;;;19.90;98.40;;;;;;6257748;23;20412;-85
2023/09/18 22:55:43;;;;;;;;;;;;;;;;;;;;;
2023/09/18 22:59:07;;;;;;;2.07;1.30;;;19.90;98.40;;;;;;6295861;22;20415;-84
2023/09/18 23:02:00;;;;;;;2.77;2.07;;;19.80;98.30;;;;;;6285309;22;20430;-86
2023/09/18 23:05:07;;;;;;;1.50;1.20;;;19.80;98.50;;;;;;6286967;22;20426;-84
2023/09/18 23:08:29;;;;;;;2.10;1.40;;;19.70;98.30;;;;;;6285720;22;20387;-85
2023/09/18 23:11:38;;;;;;;1.90;1.23;;;19.70;98.30;;;;;;6277232;22;20402;-84
2023/09/18 23:15:16;;;;;;;3.63;1.50;;;19.60;98.20;;;;;;6260798;22;20419;-85
2023/09/18 23:22:16;;;;;;;3.40;1.73;;;19.60;98.30;;;;;;6249097;23;20487;-85
2023/09/18 23:29:08;;;;;;;3.83;1.50;;;19.60;98.60;;;;;;6273207;22;20399;-83
2023/09/18 23:40:39;;;;;;;1.73;1.50;;;19.50;98.70;;;;;;6215079;23;20386;-84
2023/09/18 23:43:41;;;;;;;4.00;1.80;;;19.40;98.60;;;;;;6227006;23;20495;-86
2023/09/18 23:47:11;;;;;;;;;;;;;;;;;;;;;
2023/09/18 23:50:41;;;;;;;3.90;2.03;;;19.40;98.70;;;;;;6232964;23;20404;-85
2023/09/18 23:53:29;;;;;;;2.03;1.53;;;19.30;98.50;;;;;;6222284;23;20415;-85
2023/09/18 23:56:39;;;;;;;2.43;1.30;;;19.50;98.10;;;;;;6228293;23;20396;-84
